Airfield :
LOGIN :

Register | Disclaimer

   EN    FR    IT 

 










Legend :    VFR   Marginal VFR   IFR   Intensive IFR   Very Intensive IFR
Visi :
Ceiling :
>= 8 km
>= 3000ft
5 to 8 km
1000 to 3000 ft
1500m to 5 km
500 to 1000 ft
800 to 1500m
200 to 500 ft
< 800m
< 200 ft
Symbols :   Thunderstorms  Fog  Heavy snow  Heavy precipitations  Wind > 20 kt
SIGMETs :     Misc.  Thunderstorms  Icing  Turbulence  Mountain Waves  Volcanic Ashes






- Airport Elevation : 147 ft
- IATA code : DUS


EDDL - Düsseldorf Int.

CURRENT METAR :
  • 011420Z AUTO 26017KT 9999 BKN029 BKN036 08/03 Q1018 TEMPO 26020G30KT

EXPIRED METARs :
  • 011350Z AUTO 26016KT 9999 OVC028 08/03 Q1018 TEMPO 26020G30KT
  • 011320Z AUTO 25018KT 9999 -RA OVC028 08/03 Q1018 TEMPO 26020G30KT
  • 011250Z AUTO 25017KT 9999 BKN030 OVC037 07/03 Q1018 TEMPO 25020G30KT SHRA BKN015CB
  • 011220Z AUTO 25017G28KT 9999 BKN025 BKN043 07/03 Q1018 TEMPO SHRA BKN015CB
  • 011150Z AUTO 25018G30KT 9999 BKN026 OVC033 07/03 Q1019 TEMPO 25020G30KT RADZ

TAF TAF EDDL
Valid from the 01 at 12:00 until the 02 at 18:00 UTC


011100Z 0112/0218 26015G25KT 9999 BKN025
PROB40
TEMPO 0112/0114 25020G30KT RADZ
PROB30
TEMPO 0114/0118 28020G35KT 4000 SHRA BKN015CB
BECMG 0118/0121 27012KT
PROB30
TEMPO 0118/0124 28020G30KT 4000 SHRA BKN012CB
BECMG 0202/0204 BKN012
PROB30
TEMPO 0204/0215 4000 RADZ BKN008



MET'MAP, your aeronautical weather chart ! - Copyright ORBIFLY December 2007 - Disclaimer

ORBIFLY MET'MAP TEAM :

Programming & Development : Alexandra Zaïnal
Original concept : Baudouin d'Aumeries
Technical & hardware support : Manuel Goepfert
Assistance : Marc-Olivier Méhu




SOURCES & CREDITS :

   NOAA